KMDH Weather | Aviation | SIU

Home
Southern Illinois University

CONTACT

SIU.EDU

Aviation - Weather

College of Applied Sciences and Arts

KMDH Weather

NOTICE: Although all weather products are taken from the National Weather Service, this data should be used only as a supplement to a formal weather briefing.

Last Updated: Friday, February 23rd, 2018, 4:19 am
Information on this page is updated every 5 minutes.


METARS

KMDH 230852Z AUTO 14004KT 8SM OVC006 09/09 A3013 RMK AO2 RAB0753E48 SLP205 6////

KMDH 230752Z AUTO 7SM OVC006 09/09 A3017 RMK AO2 RAE25 SLP217 T00890089 PNO

KMDH 230726Z AUTO 13003KT 5SM BR OVC006 08/08 A3018 RMK AO2 RAE25 CIG 004V008

KMWA 231015Z AUTO 20012G18KT 10SM OVC007 13/13 A3014 RMK AO2 T01330131

KMWA 230955Z AUTO 18012G17KT 10SM OVC007 13/13 A3012 RMK AO2 P0001 T01310128

KMWA 230935Z AUTO 17011KT 10SM RA OVC005 13/13 A3013 RMK AO2 P0001 T01300127

KMWA 230915Z AUTO 17009KT 10SM RA OVC005 12/12 A3015 RMK AO2 T01190116

KMWA 230855Z AUTO 16006KT 10SM OVC005 11/11 A3016 RMK AO2 P0001 60021 T01120110

KMWA 230835Z AUTO 18005KT 2 1/2SM RA OVC005 11/11 A3017 RMK AO2 VIS 1/4V5 P0001

KMWA 230815Z AUTO 14005KT 10SM -RA BKN005 OVC010 11/11 A3017 RMK AO2 T01070105

KMWA 230755Z AUTO 13003KT 10SM OVC005 11/10 A3017 RMK AO2 P0002 T01060103

KMWA 230735Z AUTO 00000KT 10SM BKN005 BKN070 OVC120 10/10 A3019 RMK AO2 P0002

KCGI 231000Z AUTO 19009KT 8SM RA BKN004 OVC010 14/13 A3014 RMK AO2 P0001

KCGI 230953Z AUTO 17009KT 10SM -RA OVC005 13/13 A3013 RMK AO2 RAB04 SLP202 P0002

KCGI 230932Z AUTO 16010KT 10SM -RA OVC005 13/12 A3013 RMK AO2 RAB04 P0002

KCGI 230853Z AUTO 15009KT 10SM OVC004 12/11 A3017 RMK AO2 RAE45 SLP215 P0008

KCGI 230839Z AUTO 14007KT 7SM -RA BKN005 BKN055 OVC070 11/11 A3017 RMK AO2 P0008

KCGI 230832Z AUTO 16009KT 5SM RA BR SCT007 BKN055 OVC100 11/11 A3017 RMK AO2

KCGI 230808Z AUTO 15010KT 6SM -RA BR SCT006 BKN021 OVC100 11/11 A3018 RMK AO2

KCGI 230753Z AUTO 17008KT 8SM -RA BKN006 OVC025 11/10 A3019 RMK AO2 RAE06B51

KSAR 231015Z AUTO 29006KT 2SM +DZ OVC003 08/08 A3018 RMK AO2 P0002 T00820082

KSAR 230955Z AUTO 27005KT 2SM +RA OVC003 09/09 A3016 RMK AO2 T00880088

KSAR 230935Z AUTO 25005G08KT 4SM BR OVC003 09/09 A3016 RMK AO2 T00880088

KSAR 230915Z AUTO 28005KT 7SM OVC003 09/09 A3015 RMK AO2 T00860086

KSAR 230855Z AUTO 19004KT 7SM OVC003 09/09 A3014 RMK AO2 60004 T00860086

KSAR 230835Z AUTO 15006KT 10SM OVC003 08/08 A3013 RMK AO2 T00820082

KSAR 230815Z AUTO 16005KT 10SM OVC003 08/08 A3015 RMK AO2 T00810081

KSAR 230755Z AUTO 15007KT 10SM OVC003 08/08 A3016 RMK AO2 T00800080

KSAR 230735Z AUTO 15006KT 10SM OVC003 08/08 A3017 RMK AO2 T00800080

KFAM 231014Z AUTO 28005KT 4SM -RA BR BKN006 OVC012 10/09 A3017 RMK AO2 CIG

KFAM 230956Z AUTO 26004KT 4SM -RA BR FEW003 OVC012 09/09 A3016 RMK AO2 RAB0859

KFAM 230948Z AUTO 23007KT 5SM -RA BR SCT003 OVC012 09/09 A3016 RMK AO2 RAB0859

KFAM 230927Z AUTO 22006KT 3SM -RA BR OVC003 09/09 A3017 RMK AO2 RAB0859 P0001

KFAM 230917Z AUTO 20006KT 2 1/2SM -RA BR OVC003 08/08 A3017 RMK AO2 RAB0859

KFAM 230856Z AUTO 21006KT 4SM BR OVC003 08/08 A3016 RMK AO2 SLP216 60001

KFAM 230756Z AUTO 18010KT 10SM OVC003 07/07 A3015 RMK AO2 SLP211 T00720072

KMVN 230956Z AUTO 20004KT 9SM OVC003 11/11 A3012 RMK AO2 SLP200 T01060106

KMVN 230856Z AUTO 15004KT 9SM OVC003 10/09 A3013 RMK AO2 RAB0757E08 SLP203 P0001

KMVN 230756Z AUTO 15008KT 10SM OVC003 09/09 A3016 RMK AO2 RAE50 SLP215 P0011

KHSB 231015Z AUTO 16007KT 10SM OVC009 13/13 A3013 RMK AO2 T01260126

KCIR 231015Z AUTO 17010G15KT 7SM RA SCT007 SCT019 OVC110 14/14 A3016 RMK AO2 LTG

KPAH 231012Z AUTO 18009G18KT 3SM RA BR FEW018 BKN039 OVC075 14/13 A3016 RMK AO2

KPOF 230953Z AUTO 20004KT 7SM OVC003 09/09 A3017 RMK AO2 RAB0856E53 SLP217 P0004

KFAM 231014Z AUTO 28005KT 4SM -RA BR BKN006 OVC012 10/09 A3017 RMK AO2 CIG

KBLV 231011Z AUTO 28006KT 8SM -DZ OVC004 08/07 A3016 RMK AO2 CIG 002 RWY32R

KSUS 231013Z AUTO 25007KT 9SM BKN009 OVC020 08/07 A3017 RMK AO2 T00780072

KCPS 231002Z AUTO 26003KT 7SM BKN009 OVC023 08/07 RMK AO2 T00780072 TSNO $

KSTL 231007Z 25007KT 5SM -DZ BR FEW004 BKN020 OVC027 08/08 A3017 RMK AO2 P0000

KTBN 230956Z AUTO 27007KT 10SM OVC006 07/07 A3017 RMK AO2 CIG 005 RWY32 SLP225

KVIH 230953Z AUTO 26008KT 3SM BR OVC003 07/07 A3018 RMK AO2 SLP224 T00670067 $

KENL 231015Z AUTO 25007KT 1 1/2SM RA OVC003 10/10 A3014 RMK AO2 T01000100

KMTO 230959Z AUTO 17010KT 1 3/4SM BR OVC002 08/08 A3010 RMK AO2 T00830083

KFWC 231015Z AUTO 00000KT 7SM -RA OVC003 12/12 A3011 RMK AO1 P0001 T01160116

KCUL 231015Z AUTO 15011KT 10SM -RA OVC005 11/11 A3013 RMK AO2 T01100110

KEVV 230954Z AUTO 14006KT 10SM -RA BKN003 BKN007 OVC100 11/11 A3017 RMK AO2

KOWB 230956Z AUTO 16007KT 6SM RA BR BKN003 BKN008 OVC011 12/12 A3021 RMK AO2 LTG

KEHR 230956Z AUTO 17012KT 10SM -RA FEW004 SCT050 BKN100 13/13 A3018 RMK AO2

KHOP 230956Z AUTO 23012KT 7SM -RA FEW002 16/16 A3025 RMK AO2 RAB0858 SLP244

KMKL 230953Z AUTO 12004KT 10SM FEW016 BKN080 OVC095 15/15 A3022 RMK AO2 SLP231

KDYR 231003Z AUTO 17003KT 10SM BKN026 OVC035 15/14 A3019 RMK AO2 PNO $

KARG 230956Z AUTO 18003KT 5SM RA BR SCT009 BKN014 OVC042 08/08 A3019 RMK AO2

KJBR 231012Z AUTO 23005KT 10SM VCTS -RA FEW008 BKN047 OVC060 12/12 A3019 RMK AO2

KUNO 231011Z AUTO 25004KT 2 1/2SM BR OVC003 07/06 A3020 RMK AO2 T00670061

KALN 230955Z AUTO 25008KT 3SM BR OVC003 07/07 A3017 RMK AO2 P0001 T00720072

KALN 230955Z AUTO 25008KT 3SM BR OVC003 07/07 A3017 RMK AO2 P0001 T00720072

KCOU 230954Z AUTO 26012KT 10SM OVC005 05/ A3017 RMK AO2 SLP222 T0050 $

KSPI 231005Z AUTO 23003KT 6SM BR SCT004 BKN018 OVC029 08/07 A3014 RMK AO2

KAJG 231015Z AUTO 16008KT 10SM OVC003 12/12 A3013 RMK AO2 T01200116

KM30 230955Z AUTO 16006KT 4SM RA SCT009 BKN036 OVC070 14/14 A3017 RMK AO2 LTG

KDEC 231014Z AUTO 25010KT 2 1/2SM -RA BR OVC003 08/08 A3015 RMK AO2 P0002

KIJX 231015Z AUTO 22006KT 4SM BR BKN007 OVC010 06/06 A3015 RMK AO2 T00590055


TAFS

KEVV 230918Z 2309/2406 15007KT P6SM -SHRA FEW005 BKN025

        TEMPO 2309/2313 3SM SHRA BR BKN005

        FM231500 24007KT P6SM -SHRA OVC008

        FM231800 28005KT P6SM VCSH OVC015

        FM232300 VRB03KT P6SM -SHRA OVC010

KCGI 230922Z 2309/2406 15009KT P6SM -SHRA OVC004 WS020/22035KT

        TEMPO 2309/2312 5SM -SHRA BR

        FM231300 27007KT P6SM -SHRA OVC008

        FM231800 VRB04KT P6SM VCSH OVC015

        FM232200 04004KT P6SM -SHRA OVC010

KPAH 230915Z 2309/2406 17009KT P6SM -SHRA FEW005 OVC090 WS020/21035KT

        TEMPO 2309/2312 2SM +TSRA BR BKN005CB

        FM231400 24007KT P6SM -SHRA OVC008

        FM232000 29005KT P6SM VCSH OVC015

        FM232300 VRB03KT P6SM -SHRA OVC010

KSPI 231014Z 2310/2406 22007KT 6SM BR VCSH SCT004 OVC018

        TEMPO 2310/2312 3SM -DZ BR OVC004

        FM231300 26007KT P6SM OVC003

        FM231700 27007KT P6SM BKN015

        FM232100 28007KT P6SM OVC250

KSTL 230853Z 2309/2412 27010KT 3SM BR OVC004

        TEMPO 2309/2312 1 1/2SM -DZ BR OVC003

        FM231500 32004KT P6SM OVC007

        FM231900 33005KT P6SM OVC015

        FM240600 06007KT 3SM SHRA BR OVC008

KDEC 230946Z 2310/2406 VRB06KT 3SM BR VCSH OVC002

        FM231500 26008KT P6SM OVC005

        FM231700 27007KT P6SM BKN012

        FM232200 28008KT P6SM OVC250

KOWB 230921Z 2309/2406 16007KT 6SM -SHRA BR FEW003 BKN013

        TEMPO 2309/2313 2SM SHRA BR

        FM231600 23007KT P6SM -SHRA OVC008

        FM232000 29006KT P6SM VCSH OVC015

        FM240000 VRB04KT P6SM -SHRA OVC010

KSUS 230747Z 2308/2406 15006KT 6SM BR OVC006

        TEMPO 2309/2313 4SM BR OVC004

        FM231500 28006KT P6SM OVC007

        FM231900 00000KT P6SM OVC015

        FM240500 06006KT P6SM SHRA OVC015

TAF KBLV 230800Z 2308/2414 14006KT 9999 OVC003 QNH3012INS

        BECMG 2312/2313 27010G15KT 9999 OVC005 QNH3017INS

        BECMG 2320/2321 28006KT 9999 SCT005 BKN020 QNH3014INS

        BECMG 2404/2405 08009KT 8000 -RA OVC004 QNH3005INS

        BECMG 2408/2409 08009KT 4800 -RA OVC004 QNH2993INS TX13/2319Z TN07/2408Z


Winds Aloft

VALID 231200Z FOR USE 0800-1500Z. TEMPS NEG ABV 24000

FT 3000 6000 9000 12000 18000 24000 30000 34000 39000
CGI25322438+102447+052449+002352-122353-24237440237450249355
EVV24472446+102446+052446+002451-132455-24236940247650249156
SPI27262336+072440+042553-012472-152392-25730941730852741358
STL28262433+112538+042454+002472-162390-25730240730352741057



Pilot Reports

No pilot reports found for area.



Area Forecast



Significant Weather

WAUS43 KKCI 230845 CHIZ WA 230845 AIRMET ZULU UPDT 1 FOR ICE AND FRZLVL VALID UNTIL 231500 AIRMET ICE...MO MI IL IN KY AR TN MS FROM FWA TO CVG TO HNN TO 40N HMV TO 30SW BWG TO 30E MEM TO 50NW SQS TO 70SE SGF TO 20NE FAM TO 40ESE AXC TO FWA MOD ICE BTN FRZLVL AND FL240. FRZLVL 100-120. CONDS CONTG BYD 15Z THRU 21Z. FRZLVL...RANGING FROM SFC-125 ACRS AREA MULT FRZLVL BLW 090 BOUNDED BY SAW-60E SAW-20ESE SSM-YVV-30SE ECK-20SW DXO-40WNW ORD-30ENE DSM-70E GCK-30SSW GLD-20E EAU- 40N RHI-SAW MULT FRZLVL BLW 110 BOUNDED BY 30ENE ORD-30ESE BDF-40SSE UIN- 30N OSW-20S OSW-40WNW MLC-40NE CDS-50NNE TCC-30ESE TBE-50W LBL-30SSW GLD-60E GCK-30ENE DSM-40ESE DBQ-30ENE ORD SFC ALG 40SSE ICT-20W IRK-20WNW DLL-60SW TVC-20SSE MBS-30ESE ECK 040 ALG 30W OSW-60SSE IOW-30W BAE-20NE BAE-DXO 080 ALG 30NW RZC-JOT-20SE ORD-FWA 120 ALG 20N DYR-70SSW PXV-20SSE PXV-30N BWG-50S HNN
WAUS44 KKCI 230845 DFWZ WA 230845 AIRMET ZULU UPDT 1 FOR ICE AND FRZLVL VALID UNTIL 231500 AIRMET ICE...AR TN MS MO MI IL IN KY FROM FWA TO CVG TO HNN TO 40N HMV TO 30SW BWG TO 30E MEM TO 50NW SQS TO 70SE SGF TO 20NE FAM TO 40ESE AXC TO FWA MOD ICE BTN FRZLVL AND FL240. FRZLVL 100-120. CONDS CONTG BYD 15Z THRU 21Z. FRZLVL...RANGING FROM SFC-155 ACRS AREA MULT FRZLVL BLW 110 BOUNDED BY 30ENE ORD-30ESE BDF-40SSE UIN- 30N OSW-20S OSW-40WNW MLC-40NE CDS-50NNE TCC-30ESE TBE-50W LBL-30SSW GLD-60E GCK-30ENE DSM-40ESE DBQ-30ENE ORD SFC ALG 70WSW LBB-CDS-40SSE ICT 040 ALG 40ESE TXO-40N SPS-40ENE OKC-30W OSW 080 ALG 60N INK-50SSW SPS-20SW MLC-30NW RZC 120 ALG 50WSW MRF-20S FST-80SE ABI-30NE TXK-20N DYR
WAUS44 KKCI 230845 DFWS WA 230845 AIRMET SIERRA UPDT 2 FOR IFR VALID UNTIL 231500 AIRMET IFR...OK AR TN NE KS MN IA MO WI LM LS MI LH IL IN KY FROM 40E YQT TO 20N SSM TO YVV TO 30ESE ECK TO FWA TO CVG TO 20S BWG TO 30NNW DYR TO RZC TO OSW TO 60SE ICT TO 20WNW PWE TO 60WSW FOD TO 30SE FOD TO 70SE INL TO 40E YQT CIG BLW 010/VIS BLW 3SM PCPN/BR/FG. CONDS CONTG BYD 15Z THRU 21Z.
WAUS43 KKCI 230845 CHIS WA 230845 AIRMET SIERRA UPDT 2 FOR IFR AND MTN OBSCN VALID UNTIL 231500 AIRMET IFR...NE KS MN IA MO WI LM LS MI LH IL IN KY OK AR TN FROM 40E YQT TO 20N SSM TO YVV TO 30ESE ECK TO FWA TO CVG TO 20S BWG TO 30NNW DYR TO RZC TO OSW TO 60SE ICT TO 20WNW PWE TO 60WSW FOD TO 30SE FOD TO 70SE INL TO 40E YQT CIG BLW 010/VIS BLW 3SM PCPN/BR/FG. CONDS CONTG BYD 15Z THRU 21Z. OTLK VALID 1500-2100Z...MTN OBSCN KY BOUNDED BY HNN-50WSW BKW-20SW VXV-50WSW LOZ-HNN MTNS OBSC BY CLDS/PCPN/BR. CONDS DVLPG 18-21Z. CONDS CONTG THRU 21Z.
WAUS43 KKCI 230845 CHIT WA 230845 AIRMET TANGO UPDT 1 FOR TURB AND LLWS VALID UNTIL 231500 AIRMET TURB...KS MO MI IL IN KY OK TX AR TN LA MS FROM 20NNE DXO TO FWA TO CVG TO HNN TO 40W LIT TO 40W GGG TO 30W IAH TO 20SE LRD TO DLF TO 90S MRF TO ELP TO INK TO 30SSW TXO TO 20NNE DXO MOD TURB BTN FL180 AND FL360. CONDS CONTG BYD 15Z THRU 21Z. OTLK VALID 1500-2100Z AREA 1...TURB NE KS IA MO LM MI IL IN KY OK TX AR TN BOUNDED BY 20NE DXO-FWA-CVG-40S CVG-30NNW LIT-30E SAT-20WSW SAT- 20SSE DLF-90S MRF-20W ELP-INK-20NW TXO-20SE PWE-20NE DXO MOD TURB BTN FL180 AND FL390. CONDS CONTG THRU 21Z. AREA 2...TURB ND SD NE KS MN IA MO WI LM LS MI LH IL BOUNDED BY 30NW INL-YQT-20WNW SSM-30ESE SSM-YVV-40E ECK-20NE DXO- 30ESE PWE-GLD-BFF-70SW RAP-50WSW DIK-30NW INL MOD TURB BTN FL220 AND FL390. CONDS CONTG THRU 21Z.
WAUS44 KKCI 230845 DFWT WA 230845 AIRMET TANGO UPDT 1 FOR TURB AND LLWS VALID UNTIL 231500 AIRMET TURB...OK TX AR TN LA MS KS MO MI IL IN KY FROM 20NNE DXO TO FWA TO CVG TO HNN TO 40W LIT TO 40W GGG TO 30W IAH TO 20SE LRD TO DLF TO 90S MRF TO ELP TO INK TO 30SSW TXO TO 20NNE DXO MOD TURB BTN FL180 AND FL360. CONDS CONTG BYD 15Z THRU 21Z. OTLK VALID 1500-2100Z AREA 1...TURB OK TX AR TN NE KS IA MO LM MI IL IN KY BOUNDED BY 20NE DXO-FWA-CVG-40S CVG-30NNW LIT-30E SAT-20WSW SAT- 20SSE DLF-90S MRF-20W ELP-INK-20NW TXO-20SE PWE-20NE DXO MOD TURB BTN FL180 AND FL390. CONDS CONTG THRU 21Z. AREA 2...TURB OK TX AR LA AND CSTL WTRS BOUNDED BY 50WSW TUL-60WSW ARG-20SW ELD-50WSW LFK-20ENE CRP-20E BRO-60W BRO-20SW LRD-50WNW DLF-30SE LBB-50WSW TUL MOD TURB BLW 070. CONDS CONTG THRU 21Z.